CAT3 weather

Nanaimo/Long Lake Seaplane Base
British Columbia, Canada

Public forecast

Using degrees Celsius for public forecast. Weather courtesy of forecast.io.

METAR (pilot weather report)

Report is more than 2 hours old.

Closest report is Nanaimo Airport, 11.3 nm (20.9 km) SSE. Retrieved 2019/07/22 04:00 UTC (5 hours ago):

CYCD 220400Z 04002KT 30SM FEW120 SCT250 21/13 A2991 RMK AC1CI2 LAST STFD OBS/NEXT 221300Z SLP129 DENSITY ALT 900FT

TAF (pilot weather forecast)

Forecast is more than 12 hours old.

Closest forecast is Nanaimo Airport, 11.3 nm (20.9 km) SSE. Retrieved 2019/07/21 00:00 UTC (1 day ago):

TAF CYCD 212338Z 2200/2204 10005KT P6SM FEW060 FEW250 RMK NXT FCST WILL BE ISSUED AT 221445Z